Planet — DRLA — position and weather

sailwx.info

Track history (hours):
 
Tides and Currents Weather Stations Pressure Air Temp Water Temp Dewpoint Dewpoint Depression Visibility Wind Speed Wind Dir Waves Ship Positions

Planet

Last reported at 2018-Apr-20 11:22 UTC. Time now 2018-May-22 08:44 UTC.
Position N 54°38' E 010°16'.
Warning: this ship's position is 31 days out of date.

Length 73 m; draft 6.8 m.

Type: Military. MMSI: 211909000.

Date/timePositionNaut miles runAvg speedWind from/ knotsBaromVisibWave heightAir tempDewpointWater temp
2018-Apr-20 11:22N 54°38' E 010°16'511.0
2018-Apr-20 10:54N 54°35' E 010°22'15 2.5
2018-Apr-20 04:44N 54°22' E 010°10'3 9.0
2018-Apr-20 04:22N 54°25' E 010°13'410.1
2018-Apr-20 04:01N 54°28' E 010°15'6 9.7
2018-Apr-20 03:25N 54°32' E 010°23'4 9.7
2018-Apr-20 03:01N 54°33' E 010°30'5 9.7
2018-Apr-20 02:30N 54°36' E 010°37'5 9.6
2018-Apr-20 02:01N 54°38' E 010°44'5 9.8
2018-Apr-20 01:31N 54°42' E 010°49'5 9.2
2018-Apr-20 01:01N 54°46' E 010°51'5 9.6
2018-Apr-20 00:30N 54°51' E 010°52'5 9.0
2018-Apr-20 00:00N 54°56' E 010°54'5 9.4
2018-Apr-19 23:31N 54°59' E 010°60'5 9.8
2018-Apr-19 23:01N 55°04' E 011°02'510.3
2018-Apr-19 22:30N 55°09' E 011°03'5 9.7
2018-Apr-19 22:00N 55°14' E 011°06'610.4
2018-Apr-19 21:27N 55°19' E 011°02'510.6
2018-Apr-19 21:00N 55°23' E 011°00'7010.1
2018-Apr-19 14:02N 56°31' E 011°36'210.8
2018-Apr-19 13:50N 56°33' E 011°38'810.8
2018-Apr-19 13:07N 56°39' E 011°46'111.0
2018-Apr-19 13:01N 56°40' E 011°47'610.8
2018-Apr-19 12:29N 56°46' E 011°51'611.6
2018-Apr-19 11:57N 56°52' E 011°47'611.5
2018-Apr-19 11:26N 56°57' E 011°43'511.3
2018-Apr-19 10:57N 57°02' E 011°40'911.2
2018-Apr-19 10:07N 57°11' E 011°35'111.3
2018-Apr-19 10:00N 57°12' E 011°34'611.4
2018-Apr-19 09:31N 57°18' E 011°30'611.5
2018-Apr-19 09:01N 57°23' E 011°27'611.6
2018-Apr-19 08:31N 57°28' E 011°23'611.4
2018-Apr-19 08:01N 57°32' E 011°15'611.6
2018-Apr-19 07:31N 57°36' E 011°07'611.9
2018-Apr-19 07:00N 57°40' E 010°59'612.2
2018-Apr-19 06:30N 57°44' E 010°50'714.7
2018-Apr-19 06:00N 57°47' E 010°37'1414.9
2018-Apr-19 05:05N 57°47' E 010°11'513.7
2018-Apr-19 04:42N 57°46' E 010°01'1214.1
2018-Apr-19 03:49N 57°45' E 009°38'6213.9
2018-Apr-18 23:22N 57°42' E 007°43'513.0
2018-Apr-18 22:59N 57°42' E 007°33'612.7
2018-Apr-18 22:30N 57°43' E 007°22'713.1
2018-Apr-18 21:59N 57°43' E 007°09'1712.6
2018-Apr-18 20:39N 57°44' E 006°38'212.0
2018-Apr-18 20:29N 57°44' E 006°34'612.5
2018-Apr-18 20:00N 57°48' E 006°25'612.7
2018-Apr-18 19:30N 57°52' E 006°16'1112.9
2018-Apr-18 18:38N 57°59' E 006°00'214.0
2018-Apr-18 18:30N 58°00' E 005°57'2214.1
2018-Apr-18 16:58N 58°14' E 005°26'913.7
2018-Apr-18 16:19N 58°20' E 005°14'414.0
2018-Apr-18 16:00N 58°25' E 005°12'713.8
2018-Apr-18 15:30N 58°31' E 005°12'713.0
2018-Apr-18 15:00N 58°38' E 005°13'612.7
2018-Apr-18 14:30N 58°44' E 005°14'713.5
2018-Apr-18 14:00N 58°51' E 005°16'713.6
2018-Apr-18 13:30N 58°58' E 005°18'714.0
2018-Apr-18 13:00N 59°05' E 005°19'612.4
2018-Apr-18 12:30N 59°08' E 005°29'612.4
2018-Apr-18 12:00N 59°12' E 005°38'713.3
2018-Apr-18 11:30N 59°18' E 005°46'612.5
2018-Apr-18 11:00N 59°18' E 005°59'0 0.7
2018-Apr-18 10:30N 59°18' E 005°59'0 0.0
2018-Apr-18 10:00N 59°18' E 005°59'0 0.1
2018-Apr-18 09:30N 59°18' E 005°59'0 0.0
2018-Apr-18 09:00N 59°18' E 005°59'0 0.0
2018-Apr-18 08:30N 59°18' E 005°59'0 0.1
2018-Apr-18 08:00N 59°19' E 005°59'0 0.0
2018-Apr-18 07:30N 59°19' E 005°59'0 0.0
2018-Apr-18 07:00N 59°19' E 005°59'0 0.1
2018-Apr-18 06:30N 59°18' E 005°59'0 0.0
2018-Apr-18 06:00N 59°18' E 005°59'0 0.0
2018-Apr-18 05:30N 59°18' E 005°59'0 0.1
2018-Apr-18 05:00N 59°18' E 005°59'0 0.0
2018-Apr-18 04:30N 59°19' E 005°59'0 0.0
2018-Apr-18 04:00N 59°19' E 005°59'0 0.1
2018-Apr-18 03:30N 59°19' E 005°59'0 0.1
2018-Apr-18 03:00N 59°18' E 005°59'0 0.1
2018-Apr-18 02:30N 59°19' E 005°59'0 0.1
2018-Apr-18 02:00N 59°19' E 005°59'0 0.1
2018-Apr-18 01:30N 59°19' E 005°59'0 0.0
2018-Apr-18 01:00N 59°19' E 005°59'0 0.1
2018-Apr-18 00:30N 59°19' E 005°59'0 0.1
2018-Apr-18 00:00N 59°19' E 005°59'0 0.1
2018-Apr-17 23:30N 59°19' E 005°59'0 0.2
2018-Apr-17 23:00N 59°19' E 005°59'0 0.2
2018-Apr-17 22:30N 59°19' E 005°59'0 0.3
2018-Apr-17 22:00N 59°18' E 005°59'0 0.3
2018-Apr-17 21:30N 59°18' E 005°59'0 0.1
2018-Apr-17 21:00N 59°18' E 005°59'0 0.1
2018-Apr-17 20:30N 59°18' E 005°59'0 0.2
2018-Apr-17 20:00N 59°18' E 005°59'0 0.2
2018-Apr-17 19:30N 59°19' E 005°59'0 0.2
2018-Apr-17 19:00N 59°19' E 005°59'0 0.3
2018-Apr-17 18:30N 59°19' E 005°59'0 0.3
2018-Apr-17 18:00N 59°19' E 005°58'0 0.0
2018-Apr-17 17:30N 59°19' E 005°58'0 0.2
2018-Apr-17 17:00N 59°19' E 005°59'0 0.2
2018-Apr-17 16:30N 59°19' E 005°59'0 0.1
2018-Apr-17 16:00N 59°19' E 005°59'0 0.1
2018-Apr-17 15:30N 59°19' E 005°59'0 0.1
2018-Apr-17 15:00N 59°19' E 005°59'0 0.0
2018-Apr-17 14:30N 59°19' E 005°59'0 0.1
2018-Apr-17 14:00N 59°19' E 005°59'0 0.1
2018-Apr-17 13:30N 59°19' E 005°59'0 0.2
2018-Apr-17 13:00N 59°19' E 005°59'0 0.4
2018-Apr-17 12:30N 59°18' E 005°59'0 0.2
2018-Apr-17 12:00N 59°18' E 005°59'0 0.1
2018-Apr-17 11:30N 59°18' E 005°59'0 0.2
2018-Apr-17 11:00N 59°18' E 005°59'0 0.1
2018-Apr-17 10:30N 59°18' E 005°59'0 0.1
2018-Apr-17 10:00N 59°18' E 005°59'0 0.1
2018-Apr-17 09:27N 59°18' E 005°59'0 0.1
2018-Apr-17 09:00N 59°18' E 005°59'0 0.2
2018-Apr-17 08:30N 59°18' E 005°59'0 0.1
2018-Apr-17 08:00N 59°18' E 005°59'0 0.1
2018-Apr-17 07:30N 59°18' E 005°59'0 0.1
2018-Apr-17 06:57N 59°18' E 005°59'0 0.1
2018-Apr-17 06:30N 59°18' E 005°59'0 0.1
2018-Apr-17 06:00N 59°18' E 005°59'0 0.2
2018-Apr-17 05:30N 59°18' E 005°59'0 0.2
2018-Apr-17 05:00N 59°18' E 005°59'0 0.2
2018-Apr-17 04:24N 59°18' E 005°59'0 0.1
2018-Apr-17 04:00N 59°18' E 005°59'0 0.1
2018-Apr-17 03:30N 59°18' E 005°59'0 0.2
2018-Apr-17 03:00N 59°18' E 005°59'0 0.3
2018-Apr-17 02:30N 59°18' E 005°59'0 0.0
2018-Apr-17 02:00N 59°18' E 005°59'0 0.1
2018-Apr-17 01:30N 59°18' E 005°59'0 0.0
2018-Apr-17 01:00N 59°18' E 005°59'0 0.0
2018-Apr-17 00:30N 59°18' E 005°59'0 0.1
2018-Apr-17 00:00N 59°18' E 005°59'0 0.0
2018-Apr-16 23:30N 59°18' E 005°59'0 0.1
2018-Apr-16 23:00N 59°18' E 005°59'0 0.1
2018-Apr-16 22:30N 59°18' E 005°59'0 0.1
2018-Apr-16 22:00N 59°18' E 005°59'0 0.1
2018-Apr-16 21:30N 59°18' E 005°59'0 0.0
2018-Apr-16 21:00N 59°18' E 005°59'0 0.0
2018-Apr-16 20:30N 59°18' E 005°59'0 0.1
2018-Apr-16 20:00N 59°18' E 005°59'0 0.1
2018-Apr-16 19:30N 59°18' E 005°59'0 0.1
2018-Apr-16 19:00N 59°18' E 005°59'0 0.0
2018-Apr-16 18:30N 59°18' E 005°59'0 0.1
2018-Apr-16 18:00N 59°18' E 005°59'0 0.0
2018-Apr-16 17:30N 59°18' E 005°59'0 0.1
2018-Apr-16 17:00N 59°18' E 005°59'0 0.2
2018-Apr-16 16:30N 59°18' E 005°59'0 0.1
2018-Apr-16 16:00N 59°19' E 005°59'0 0.1
2018-Apr-16 15:30N 59°19' E 005°59'0 0.0
2018-Apr-16 15:00N 59°19' E 005°59'0 0.1
2018-Apr-16 14:30N 59°19' E 005°59'0 0.1
2018-Apr-16 14:00N 59°18' E 005°59'0 0.1
2018-Apr-16 13:30N 59°18' E 005°59'0 0.0
2018-Apr-16 13:00N 59°18' E 005°59'0 0.1
2018-Apr-16 12:30N 59°18' E 005°59'0 0.1
2018-Apr-16 12:00N 59°18' E 005°59'0 0.0
2018-Apr-16 11:30N 59°18' E 005°59'0 0.1
2018-Apr-16 11:00N 59°18' E 005°59'0 0.1
2018-Apr-16 10:30N 59°18' E 005°59'0 0.1
2018-Apr-16 10:00N 59°18' E 005°59'0 0.2
2018-Apr-16 09:30N 59°18' E 005°59'0 0.0
2018-Apr-16 09:00N 59°18' E 005°59'0 0.1
2018-Apr-16 08:30N 59°18' E 005°59'0 0.1
2018-Apr-16 08:00N 59°18' E 005°59'0 0.1
2018-Apr-16 07:30N 59°18' E 005°59'0 0.0
2018-Apr-16 07:00N 59°18' E 005°59'0 0.0
2018-Apr-16 06:30N 59°18' E 005°59'0 0.0
2018-Apr-16 06:00N 59°18' E 005°59'0 0.1
2018-Apr-16 05:30N 59°18' E 005°59'0 0.1
2018-Apr-16 05:00N 59°18' E 005°59'0 0.2
2018-Apr-16 04:30N 59°18' E 005°59'0 0.0
2018-Apr-16 03:57N 59°19' E 005°59'0 0.1
2018-Apr-16 03:30N 59°18' E 005°59'0 0.1
2018-Apr-16 03:00N 59°19' E 005°59'0 0.2
2018-Apr-16 02:30N 59°18' E 005°59'0 0.2
2018-Apr-16 02:00N 59°18' E 005°59'0 0.1
2018-Apr-16 01:30N 59°18' E 005°59'0 0.0
2018-Apr-16 01:00N 59°18' E 005°59'0 0.0
2018-Apr-16 00:30N 59°18' E 005°59'0 0.1
2018-Apr-16 00:00N 59°18' E 005°59'0 0.0
2018-Apr-15 23:30N 59°18' E 005°59'0 0.1
2018-Apr-15 22:57N 59°18' E 005°59'0 0.1
2018-Apr-15 22:30N 59°18' E 005°59'0 0.1
2018-Apr-15 22:00N 59°18' E 005°59'0 0.1
2018-Apr-15 21:30N 59°18' E 005°59'0 0.1
2018-Apr-15 21:00N 59°18' E 005°59'0 0.2
2018-Apr-15 20:30N 59°18' E 005°59'0 0.0
2018-Apr-15 20:00N 59°18' E 005°59'0 0.1
2018-Apr-15 19:30N 59°18' E 005°59'0 0.0
2018-Apr-15 19:00N 59°18' E 005°59'0 0.1
2018-Apr-15 18:30N 59°18' E 005°59'0 0.3
2018-Apr-15 18:00N 59°18' E 005°59'0 0.3
2018-Apr-15 17:30N 59°18' E 005°59'0 0.3
2018-Apr-15 17:00N 59°18' E 005°59'0 0.2
2018-Apr-15 16:30N 59°18' E 005°58'0 0.0
2018-Apr-15 16:00N 59°18' E 005°58'0 0.1
2018-Apr-15 15:30N 59°18' E 005°59'0 0.1
2018-Apr-15 15:00N 59°18' E 005°59'0 0.0
2018-Apr-15 14:30N 59°18' E 005°59'0 0.0
2018-Apr-15 13:57N 59°18' E 005°59'0 0.1
2018-Apr-15 13:30N 59°18' E 005°59'0 0.0
2018-Apr-15 13:00N 59°18' E 005°59'0 0.1
2018-Apr-15 12:30N 59°18' E 005°59'0 0.0
2018-Apr-15 12:00N 59°18' E 005°59'0 0.1
2018-Apr-15 11:24N 59°18' E 005°59'0 0.1
2018-Apr-15 11:00N 59°18' E 005°59'0 0.2
2018-Apr-15 10:30N 59°18' E 005°59'3 5.6
2018-Apr-15 10:00N 59°16' E 005°55'713.6
2018-Apr-15 09:30N 59°10' E 005°53'713.7
2018-Apr-15 09:00N 59°03' E 005°51'5 9.8
2018-Apr-15 08:30N 59°01' E 005°42'3 5.8
2018-Apr-15 08:00N 58°58' E 005°44'0 0.3
2018-Apr-15 07:28N 58°58' E 005°44'0 0.0
2018-Apr-15 06:58N 58°58' E 005°44'0 0.0
2018-Apr-15 06:25N 58°58' E 005°44'0 0.0
2018-Apr-15 05:58N 58°58' E 005°44'0 0.0
2018-Apr-15 05:28N 58°58' E 005°44'0 0.0
2018-Apr-15 04:58N 58°58' E 005°44'0 0.0
2018-Apr-15 04:28N 58°58' E 005°44'0 0.0
2018-Apr-15 03:58N 58°58' E 005°44'0 0.0
2018-Apr-15 03:28N 58°58' E 005°44'0 0.0
2018-Apr-15 02:58N 58°58' E 005°44'0 0.0
2018-Apr-15 02:28N 58°58' E 005°44'0 0.0
2018-Apr-15 01:58N 58°58' E 005°44'0 0.0
2018-Apr-15 01:28N 58°58' E 005°44'0 0.0
2018-Apr-15 00:58N 58°58' E 005°44'0 0.0
2018-Apr-15 00:28N 58°58' E 005°44'0 0.0
2018-Apr-14 23:58N 58°58' E 005°44'0 0.0
2018-Apr-14 23:28N 58°58' E 005°44'0 0.0
2018-Apr-14 22:58N 58°58' E 005°44'0 0.0
2018-Apr-14 22:28N 58°58' E 005°44'0 0.0
2018-Apr-14 21:58N 58°58' E 005°44'0 0.0
2018-Apr-14 21:28N 58°58' E 005°44'0 0.0
2018-Apr-14 20:58N 58°58' E 005°44'0 0.0
2018-Apr-14 20:25N 58°58' E 005°44'0 0.0
2018-Apr-14 19:58N 58°58' E 005°44'0 0.0
2018-Apr-14 19:28N 58°58' E 005°44'0 0.0
2018-Apr-14 18:58N 58°58' E 005°44'0 0.0
2018-Apr-14 18:28N 58°58' E 005°44'0 0.0
2018-Apr-14 17:58N 58°58' E 005°44'0 0.0
2018-Apr-14 17:25N 58°58' E 005°44'0 0.0
2018-Apr-14 16:58N 58°58' E 005°44'0 0.0
2018-Apr-14 16:28N 58°58' E 005°44'0 0.0
2018-Apr-14 15:58N 58°58' E 005°44'0 0.0
2018-Apr-14 15:28N 58°58' E 005°44'0 0.0
2018-Apr-14 14:58N 58°58' E 005°44'0 0.0
2018-Apr-14 14:28N 58°58' E 005°44'0 0.0
2018-Apr-14 13:58N 58°58' E 005°44'0 0.0
2018-Apr-14 13:28N 58°58' E 005°44'0 0.0
2018-Apr-14 12:58N 58°58' E 005°44'2 4.1
2018-Apr-14 12:30N 58°60' E 005°42'4 8.2
2018-Apr-14 12:01N 59°02' E 005°49'612.0
2018-Apr-14 11:30N 59°08' E 005°52'713.5
2018-Apr-14 11:00N 59°14' E 005°55'5 9.3
2018-Apr-14 10:30N 59°18' E 005°59'0 0.3
2018-Apr-14 09:58N 59°18' E 005°59'0 0.1
2018-Apr-14 09:28N 59°18' E 005°59'0 0.0
2018-Apr-14 08:58N 59°18' E 005°59'0 0.0
2018-Apr-14 08:28N 59°18' E 005°59'0 0.0
2018-Apr-14 07:58N 59°18' E 005°59'0 0.0
2018-Apr-14 07:28N 59°18' E 005°59'0 0.1
2018-Apr-14 06:58N 59°18' E 005°59'0 0.0
2018-Apr-14 06:25N 59°18' E 005°59'0 0.2
2018-Apr-14 05:58N 59°18' E 005°59'0 0.1
2018-Apr-14 05:28N 59°18' E 005°59'0 0.2
2018-Apr-14 04:58N 59°18' E 005°59'0 0.0
2018-Apr-14 04:28N 59°18' E 005°59'0 0.1
2018-Apr-14 03:55N 59°18' E 005°59'0 0.1
2018-Apr-14 03:28N 59°18' E 005°59'0 0.1
2018-Apr-14 02:58N 59°18' E 005°59'0 0.0
2018-Apr-14 02:28N 59°18' E 005°59'0 0.1
2018-Apr-14 01:58N 59°18' E 005°59'0 0.1
2018-Apr-14 01:28N 59°18' E 005°59'0 0.1
2018-Apr-14 00:58N 59°18' E 005°59'0 0.3
2018-Apr-14 00:28N 59°18' E 005°59'0 0.3
2018-Apr-13 23:58N 59°18' E 005°59'0 0.3
2018-Apr-13 23:28N 59°18' E 005°59'0 0.4
2018-Apr-13 22:58N 59°19' E 005°59'0 0.1
2018-Apr-13 22:28N 59°18' E 005°59'0 0.3
2018-Apr-13 21:58N 59°18' E 005°59'0 0.1
2018-Apr-13 21:25N 59°18' E 005°59'0 0.1
2018-Apr-13 20:58N 59°18' E 005°59'0 0.1
2018-Apr-13 20:28N 59°18' E 005°59'0 0.1
2018-Apr-13 19:55N 59°18' E 005°59'0 0.3
2018-Apr-13 19:22N 59°18' E 005°59'0 0.2
2018-Apr-13 18:58N 59°18' E 005°59'0 0.1
2018-Apr-13 18:28N 59°18' E 005°59'0 0.1
2018-Apr-13 17:58N 59°18' E 005°59'0 0.1
2018-Apr-13 17:28N 59°18' E 005°58'0 0.0
2018-Apr-13 16:58N 59°18' E 005°58'0 0.1
2018-Apr-13 16:28N 59°18' E 005°58'0 0.3
2018-Apr-13 15:58N 59°18' E 005°58'0 0.2
2018-Apr-13 15:28N 59°18' E 005°58'0 0.1
2018-Apr-13 14:58N 59°18' E 005°58'0 0.0
2018-Apr-13 14:28N 59°18' E 005°58'0 0.1
2018-Apr-13 13:58N 59°18' E 005°58'0 0.1
2018-Apr-13 13:28N 59°18' E 005°58'0 0.3
2018-Apr-13 12:58N 59°18' E 005°59'0 0.2
2018-Apr-13 12:28N 59°18' E 005°58'0 0.3
2018-Apr-13 11:58N 59°18' E 005°59'0 0.2
2018-Apr-13 11:28N 59°18' E 005°58'0 0.1
2018-Apr-13 10:58N 59°18' E 005°58'0 0.2
2018-Apr-13 10:28N 59°18' E 005°58'0 0.1
2018-Apr-13 09:58N 59°18' E 005°58'0 0.0
2018-Apr-13 09:28N 59°18' E 005°58'2 2.2
2018-Apr-13 08:30N 59°17' E 005°55'713.8
2018-Apr-13 07:59N 59°10' E 005°54'713.6
2018-Apr-13 07:30N 59°03' E 005°52'510.1
2018-Apr-13 07:00N 59°01' E 005°42'3 5.7
2018-Apr-13 06:30N 58°59' E 005°44'0 0.5
2018-Apr-13 06:00N 58°58' E 005°44'0 0.0
2018-Apr-13 05:30N 58°58' E 005°44'0 0.0
2018-Apr-13 05:01N 58°58' E 005°44'0 0.0
2018-Apr-13 04:31N 58°58' E 005°44'0 0.0
2018-Apr-13 04:01N 58°58' E 005°44'0 0.0
2018-Apr-13 03:30N 58°58' E 005°44'0 0.0
2018-Apr-13 03:00N 58°58' E 005°44'0 0.0
2018-Apr-13 02:30N 58°58' E 005°44'0 0.0
2018-Apr-13 02:01N 58°58' E 005°44'0 0.0
2018-Apr-13 01:31N 58°58' E 005°44'0 0.0
2018-Apr-13 01:01N 58°58' E 005°44'0 0.0
2018-Apr-13 00:31N 58°58' E 005°44'0 0.0
2018-Apr-13 00:01N 58°58' E 005°44'0 0.0
2018-Apr-12 23:31N 58°58' E 005°44'0 0.0
2018-Apr-12 23:01N 58°58' E 005°44'0 0.0
2018-Apr-12 22:31N 58°58' E 005°44'0 0.0
2018-Apr-12 22:00N 58°58' E 005°44'0 0.0
2018-Apr-12 21:30N 58°58' E 005°44'0 0.0
2018-Apr-12 21:00N 58°58' E 005°44'0 0.0
2018-Apr-12 20:30N 58°58' E 005°44'0 0.0
2018-Apr-12 20:00N 58°58' E 005°44'0 0.0
2018-Apr-12 19:30N 58°58' E 005°44'0 0.0
2018-Apr-12 19:00N 58°58' E 005°44'0 0.0
2018-Apr-12 18:30N 58°58' E 005°44'0 0.0
2018-Apr-12 18:00N 58°58' E 005°44'0 0.0
2018-Apr-12 17:30N 58°58' E 005°44'0 0.0
2018-Apr-12 17:00N 58°58' E 005°44'0 0.0
2018-Apr-12 16:31N 58°58' E 005°44'0 0.0
2018-Apr-12 16:00N 58°58' E 005°44'0 0.0
2018-Apr-12 15:31N 58°58' E 005°44'0 0.0
2018-Apr-12 15:00N 58°58' E 005°44'1 1.1
2018-Apr-12 14:30N 58°59' E 005°43'2 5.0
2018-Apr-12 14:00N 59°01' E 005°42'4 8.0
2018-Apr-12 13:30N 59°02' E 005°50'4 7.9
2018-Apr-12 13:00N 59°06' E 005°52'5 8.8
2018-Apr-12 12:29N 59°10' E 005°54'4 7.9
2018-Apr-12 12:00N 59°14' E 005°55'4 8.1
2018-Apr-12 11:30N 59°18' E 005°57'1 1.3
2018-Apr-12 10:58N 59°18' E 005°58'0 0.1
2018-Apr-12 10:28N 59°18' E 005°58'0 0.2
2018-Apr-12 09:58N 59°18' E 005°58'0 0.0
2018-Apr-12 09:28N 59°18' E 005°58'0 0.3
2018-Apr-12 08:58N 59°18' E 005°58'0 0.2
2018-Apr-12 08:28N 59°18' E 005°58'0 0.2
2018-Apr-12 07:58N 59°18' E 005°58'0 0.3
2018-Apr-12 07:28N 59°18' E 005°58'0 0.2
2018-Apr-12 06:58N 59°18' E 005°58'0 0.3
2018-Apr-12 06:28N 59°18' E 005°58'0 0.2
2018-Apr-12 05:55N 59°18' E 005°58'0 0.1
2018-Apr-12 05:28N 59°18' E 005°58'0 0.0
2018-Apr-12 04:58N 59°18' E 005°58'0 0.2
2018-Apr-12 04:28N 59°18' E 005°58'0 0.2
2018-Apr-12 03:55N 59°18' E 005°58'0 0.1
2018-Apr-12 03:25N 59°18' E 005°58'0 0.1
2018-Apr-12 02:58N 59°18' E 005°58'0 0.1
2018-Apr-12 02:25N 59°18' E 005°58'0 0.1
2018-Apr-12 01:58N 59°18' E 005°58'0 0.1
2018-Apr-12 01:28N 59°18' E 005°58'0 0.0
2018-Apr-12 00:58N 59°18' E 005°58'0 0.1
2018-Apr-12 00:28N 59°18' E 005°58'0 0.0
2018-Apr-11 23:58N 59°18' E 005°58'0 0.0
2018-Apr-11 23:28N 59°18' E 005°58'0 0.1
2018-Apr-11 22:58N 59°18' E 005°58'0 0.1
2018-Apr-11 22:28N 59°18' E 005°58'0 0.1
2018-Apr-11 21:58N 59°18' E 005°58'0 0.1
2018-Apr-11 21:28N 59°18' E 005°58'0 0.1
2018-Apr-11 20:58N 59°18' E 005°58'0 0.0
2018-Apr-11 20:28N 59°18' E 005°58'0 0.2
2018-Apr-11 19:58N 59°18' E 005°58'0 0.0
2018-Apr-11 19:28N 59°18' E 005°58'0 0.1
2018-Apr-11 18:58N 59°18' E 005°58'0 0.2
2018-Apr-11 18:28N 59°18' E 005°58'0 0.2
2018-Apr-11 17:58N 59°18' E 005°58'0 0.0
2018-Apr-11 17:28N 59°18' E 005°58'0 0.2
2018-Apr-11 16:55N 59°18' E 005°58'0 0.0
2018-Apr-11 16:28N 59°18' E 005°58'0 0.2
2018-Apr-11 15:58N 59°18' E 005°58'0 0.1
2018-Apr-11 15:28N 59°18' E 005°58'0 0.2
2018-Apr-11 14:55N 59°18' E 005°59'0 0.2
2018-Apr-11 14:28N 59°18' E 005°59'0 0.1
2018-Apr-11 13:58N 59°18' E 005°59'0 0.1
2018-Apr-11 13:28N 59°18' E 005°59'0 0.0
2018-Apr-11 12:58N 59°18' E 005°59'0 0.0
2018-Apr-11 12:28N 59°18' E 005°59'0 0.0
2018-Apr-11 11:58N 59°18' E 005°59'0 0.0
2018-Apr-11 11:28N 59°18' E 005°59'0 0.1
2018-Apr-11 10:58N 59°18' E 005°59'0 0.1
2018-Apr-11 10:28N 59°18' E 005°59'0 0.1
2018-Apr-11 09:58N 59°18' E 005°59'0 0.1
2018-Apr-11 09:28N 59°18' E 005°58'0 0.1
2018-Apr-11 08:58N 59°18' E 005°58'0 0.1
2018-Apr-11 08:28N 59°18' E 005°58'0 0.1
2018-Apr-11 07:58N 59°18' E 005°59'0 0.1
2018-Apr-11 07:28N 59°18' E 005°58'0 0.2
2018-Apr-11 06:58N 59°18' E 005°58'0 0.1
2018-Apr-11 06:28N 59°18' E 005°58'0 0.2
2018-Apr-11 05:58N 59°18' E 005°59'0 0.2
2018-Apr-11 05:29N 59°18' E 005°59'1 3.1
2018-Apr-11 05:00N 59°18' E 005°56'612.5
2018-Apr-11 04:29N 59°16' E 005°44'613.2
2018-Apr-11 04:00N 59°11' E 005°36'713.2
2018-Apr-11 03:29N 59°06' E 005°26'612.4
2018-Apr-11 03:00N 59°01' E 005°20'713.7
2018-Apr-11 02:30N 58°55' E 005°18'713.7
2018-Apr-11 02:01N 58°48' E 005°16'713.9
2018-Apr-11 01:30N 58°41' E 005°14'613.1
2018-Apr-11 01:00N 58°34' E 005°12'3 6.4
2018-Apr-11 00:30N 58°31' E 005°14'4 7.8
2018-Apr-11 00:01N 58°28' E 005°17'4 8.4
2018-Apr-10 23:28N 58°24' E 005°19'5 9.7
2018-Apr-10 23:00N 58°20' E 005°26'5 9.8
2018-Apr-10 22:30N 58°17' E 005°33'510.2
2018-Apr-10 21:58N 58°14' E 005°40'510.1
2018-Apr-10 21:31N 58°11' E 005°47'510.3
2018-Apr-10 21:00N 58°07' E 005°55'610.9
2018-Apr-10 20:30N 58°04' E 006°03'611.8
2018-Apr-10 20:00N 57°60' E 006°11'611.4
2018-Apr-10 19:30N 57°56' E 006°19'611.3
2018-Apr-10 19:00N 57°52' E 006°27'511.1
2018-Apr-10 18:30N 57°49' E 006°35'612.1
2018-Apr-10 17:58N 57°47' E 006°47'612.0
2018-Apr-10 17:31N 57°46' E 006°57'611.8
2018-Apr-10 17:00N 57°46' E 007°08'612.0
2018-Apr-10 16:30N 57°45' E 007°20'611.6
2018-Apr-10 16:00N 57°45' E 007°30'612.0
2018-Apr-10 15:30N 57°45' E 007°42'611.5
2018-Apr-10 15:00N 57°45' E 007°53'611.5
2018-Apr-10 14:29N 57°45' E 008°04'  
Track history (hours):
 
Tides and Currents Weather Stations Pressure Air Temp Water Temp Dewpoint Dewpoint Depression Visibility Wind Speed Wind Dir Waves Ship Positions

Planet

Last reported at 2018-Apr-20 11:22 UTC. Time now 2018-May-22 08:44 UTC.
Position N 54°38' E 010°16'.
Warning: this ship's position is 31 days out of date.

Length 73 m; draft 6.8 m.

Type: Military. MMSI: 211909000.

Date/timePositionNaut miles runAvg speedWind from/ knotsBaromVisibWave heightAir tempDewpointWater temp
2018-Apr-20 11:22N 54°38' E 010°16'511.0
2018-Apr-20 10:54N 54°35' E 010°22'15 2.5
2018-Apr-20 04:44N 54°22' E 010°10'3 9.0
2018-Apr-20 04:22N 54°25' E 010°13'410.1
2018-Apr-20 04:01N 54°28' E 010°15'6 9.7
2018-Apr-20 03:25N 54°32' E 010°23'4 9.7
2018-Apr-20 03:01N 54°33' E 010°30'5 9.7
2018-Apr-20 02:30N 54°36' E 010°37'5 9.6
2018-Apr-20 02:01N 54°38' E 010°44'5 9.8
2018-Apr-20 01:31N 54°42' E 010°49'5 9.2
2018-Apr-20 01:01N 54°46' E 010°51'5 9.6
2018-Apr-20 00:30N 54°51' E 010°52'5 9.0
2018-Apr-20 00:00N 54°56' E 010°54'5 9.4
2018-Apr-19 23:31N 54°59' E 010°60'5 9.8
2018-Apr-19 23:01N 55°04' E 011°02'510.3
2018-Apr-19 22:30N 55°09' E 011°03'5 9.7
2018-Apr-19 22:00N 55°14' E 011°06'610.4
2018-Apr-19 21:27N 55°19' E 011°02'510.6
2018-Apr-19 21:00N 55°23' E 011°00'7010.1
2018-Apr-19 14:02N 56°31' E 011°36'210.8
2018-Apr-19 13:50N 56°33' E 011°38'810.8
2018-Apr-19 13:07N 56°39' E 011°46'111.0
2018-Apr-19 13:01N 56°40' E 011°47'610.8
2018-Apr-19 12:29N 56°46' E 011°51'611.6
2018-Apr-19 11:57N 56°52' E 011°47'611.5
2018-Apr-19 11:26N 56°57' E 011°43'511.3
2018-Apr-19 10:57N 57°02' E 011°40'911.2
2018-Apr-19 10:07N 57°11' E 011°35'111.3
2018-Apr-19 10:00N 57°12' E 011°34'611.4
2018-Apr-19 09:31N 57°18' E 011°30'611.5
2018-Apr-19 09:01N 57°23' E 011°27'611.6
2018-Apr-19 08:31N 57°28' E 011°23'611.4
2018-Apr-19 08:01N 57°32' E 011°15'611.6
2018-Apr-19 07:31N 57°36' E 011°07'611.9
2018-Apr-19 07:00N 57°40' E 010°59'612.2
2018-Apr-19 06:30N 57°44' E 010°50'714.7
2018-Apr-19 06:00N 57°47' E 010°37'1414.9
2018-Apr-19 05:05N 57°47' E 010°11'513.7
2018-Apr-19 04:42N 57°46' E 010°01'1214.1
2018-Apr-19 03:49N 57°45' E 009°38'6213.9
2018-Apr-18 23:22N 57°42' E 007°43'513.0
2018-Apr-18 22:59N 57°42' E 007°33'612.7
2018-Apr-18 22:30N 57°43' E 007°22'713.1
2018-Apr-18 21:59N 57°43' E 007°09'1712.6
2018-Apr-18 20:39N 57°44' E 006°38'212.0
2018-Apr-18 20:29N 57°44' E 006°34'612.5
2018-Apr-18 20:00N 57°48' E 006°25'612.7
2018-Apr-18 19:30N 57°52' E 006°16'1112.9
2018-Apr-18 18:38N 57°59' E 006°00'214.0
2018-Apr-18 18:30N 58°00' E 005°57'2214.1
2018-Apr-18 16:58N 58°14' E 005°26'913.7
2018-Apr-18 16:19N 58°20' E 005°14'414.0
2018-Apr-18 16:00N 58°25' E 005°12'713.8
2018-Apr-18 15:30N 58°31' E 005°12'713.0
2018-Apr-18 15:00N 58°38' E 005°13'612.7
2018-Apr-18 14:30N 58°44' E 005°14'713.5
2018-Apr-18 14:00N 58°51' E 005°16'713.6
2018-Apr-18 13:30N 58°58' E 005°18'714.0
2018-Apr-18 13:00N 59°05' E 005°19'612.4
2018-Apr-18 12:30N 59°08' E 005°29'612.4
2018-Apr-18 12:00N 59°12' E 005°38'713.3
2018-Apr-18 11:30N 59°18' E 005°46'612.5
2018-Apr-18 11:00N 59°18' E 005°59'0 0.7
2018-Apr-18 10:30N 59°18' E 005°59'0 0.0
2018-Apr-18 10:00N 59°18' E 005°59'0 0.1
2018-Apr-18 09:30N 59°18' E 005°59'0 0.0
2018-Apr-18 09:00N 59°18' E 005°59'0 0.0
2018-Apr-18 08:30N 59°18' E 005°59'0 0.1
2018-Apr-18 08:00N 59°19' E 005°59'0 0.0
2018-Apr-18 07:30N 59°19' E 005°59'0 0.0
2018-Apr-18 07:00N 59°19' E 005°59'0 0.1
2018-Apr-18 06:30N 59°18' E 005°59'0 0.0
2018-Apr-18 06:00N 59°18' E 005°59'0 0.0
2018-Apr-18 05:30N 59°18' E 005°59'0 0.1
2018-Apr-18 05:00N 59°18' E 005°59'0 0.0
2018-Apr-18 04:30N 59°19' E 005°59'0 0.0
2018-Apr-18 04:00N 59°19' E 005°59'0 0.1
2018-Apr-18 03:30N 59°19' E 005°59'0 0.1
2018-Apr-18 03:00N 59°18' E 005°59'0 0.1
2018-Apr-18 02:30N 59°19' E 005°59'0 0.1
2018-Apr-18 02:00N 59°19' E 005°59'0 0.1
2018-Apr-18 01:30N 59°19' E 005°59'0 0.0
2018-Apr-18 01:00N 59°19' E 005°59'0 0.1
2018-Apr-18 00:30N 59°19' E 005°59'0 0.1
2018-Apr-18 00:00N 59°19' E 005°59'0 0.1
2018-Apr-17 23:30N 59°19' E 005°59'0 0.2
2018-Apr-17 23:00N 59°19' E 005°59'0 0.2
2018-Apr-17 22:30N 59°19' E 005°59'0 0.3
2018-Apr-17 22:00N 59°18' E 005°59'0 0.3
2018-Apr-17 21:30N 59°18' E 005°59'0 0.1
2018-Apr-17 21:00N 59°18' E 005°59'0 0.1
2018-Apr-17 20:30N 59°18' E 005°59'0 0.2
2018-Apr-17 20:00N 59°18' E 005°59'0 0.2
2018-Apr-17 19:30N 59°19' E 005°59'0 0.2
2018-Apr-17 19:00N 59°19' E 005°59'0 0.3
2018-Apr-17 18:30N 59°19' E 005°59'0 0.3
2018-Apr-17 18:00N 59°19' E 005°58'0 0.0
2018-Apr-17 17:30N 59°19' E 005°58'0 0.2
2018-Apr-17 17:00N 59°19' E 005°59'0 0.2
2018-Apr-17 16:30N 59°19' E 005°59'0 0.1
2018-Apr-17 16:00N 59°19' E 005°59'0 0.1
2018-Apr-17 15:30N 59°19' E 005°59'0 0.1
2018-Apr-17 15:00N 59°19' E 005°59'0 0.0
2018-Apr-17 14:30N 59°19' E 005°59'0 0.1
2018-Apr-17 14:00N 59°19' E 005°59'0 0.1
2018-Apr-17 13:30N 59°19' E 005°59'0 0.2
2018-Apr-17 13:00N 59°19' E 005°59'0 0.4
2018-Apr-17 12:30N 59°18' E 005°59'0 0.2
2018-Apr-17 12:00N 59°18' E 005°59'0 0.1
2018-Apr-17 11:30N 59°18' E 005°59'0 0.2
2018-Apr-17 11:00N 59°18' E 005°59'0 0.1
2018-Apr-17 10:30N 59°18' E 005°59'0 0.1
2018-Apr-17 10:00N 59°18' E 005°59'0 0.1
2018-Apr-17 09:27N 59°18' E 005°59'0 0.1
2018-Apr-17 09:00N 59°18' E 005°59'0 0.2
2018-Apr-17 08:30N 59°18' E 005°59'0 0.1
2018-Apr-17 08:00N 59°18' E 005°59'0 0.1
2018-Apr-17 07:30N 59°18' E 005°59'0 0.1
2018-Apr-17 06:57N 59°18' E 005°59'0 0.1
2018-Apr-17 06:30N 59°18' E 005°59'0 0.1
2018-Apr-17 06:00N 59°18' E 005°59'0 0.2
2018-Apr-17 05:30N 59°18' E 005°59'0 0.2
2018-Apr-17 05:00N 59°18' E 005°59'0 0.2
2018-Apr-17 04:24N 59°18' E 005°59'0 0.1
2018-Apr-17 04:00N 59°18' E 005°59'0 0.1
2018-Apr-17 03:30N 59°18' E 005°59'0 0.2
2018-Apr-17 03:00N 59°18' E 005°59'0 0.3
2018-Apr-17 02:30N 59°18' E 005°59'0 0.0
2018-Apr-17 02:00N 59°18' E 005°59'0 0.1
2018-Apr-17 01:30N 59°18' E 005°59'0 0.0
2018-Apr-17 01:00N 59°18' E 005°59'0 0.0
2018-Apr-17 00:30N 59°18' E 005°59'0 0.1
2018-Apr-17 00:00N 59°18' E 005°59'0 0.0
2018-Apr-16 23:30N 59°18' E 005°59'0 0.1
2018-Apr-16 23:00N 59°18' E 005°59'0 0.1
2018-Apr-16 22:30N 59°18' E 005°59'0 0.1
2018-Apr-16 22:00N 59°18' E 005°59'0 0.1
2018-Apr-16 21:30N 59°18' E 005°59'0 0.0
2018-Apr-16 21:00N 59°18' E 005°59'0 0.0
2018-Apr-16 20:30N 59°18' E 005°59'0 0.1
2018-Apr-16 20:00N 59°18' E 005°59'0 0.1
2018-Apr-16 19:30N 59°18' E 005°59'0 0.1
2018-Apr-16 19:00N 59°18' E 005°59'0 0.0
2018-Apr-16 18:30N 59°18' E 005°59'0 0.1
2018-Apr-16 18:00N 59°18' E 005°59'0 0.0
2018-Apr-16 17:30N 59°18' E 005°59'0 0.1
2018-Apr-16 17:00N 59°18' E 005°59'0 0.2
2018-Apr-16 16:30N 59°18' E 005°59'0 0.1
2018-Apr-16 16:00N 59°19' E 005°59'0 0.1
2018-Apr-16 15:30N 59°19' E 005°59'0 0.0
2018-Apr-16 15:00N 59°19' E 005°59'0 0.1
2018-Apr-16 14:30N 59°19' E 005°59'0 0.1
2018-Apr-16 14:00N 59°18' E 005°59'0 0.1
2018-Apr-16 13:30N 59°18' E 005°59'0 0.0
2018-Apr-16 13:00N 59°18' E 005°59'0 0.1
2018-Apr-16 12:30N 59°18' E 005°59'0 0.1
2018-Apr-16 12:00N 59°18' E 005°59'0 0.0
2018-Apr-16 11:30N 59°18' E 005°59'0 0.1
2018-Apr-16 11:00N 59°18' E 005°59'0 0.1
2018-Apr-16 10:30N 59°18' E 005°59'0 0.1
2018-Apr-16 10:00N 59°18' E 005°59'0 0.2
2018-Apr-16 09:30N 59°18' E 005°59'0 0.0
2018-Apr-16 09:00N 59°18' E 005°59'0 0.1
2018-Apr-16 08:30N 59°18' E 005°59'0 0.1
2018-Apr-16 08:00N 59°18' E 005°59'0 0.1
2018-Apr-16 07:30N 59°18' E 005°59'0 0.0
2018-Apr-16 07:00N 59°18' E 005°59'0 0.0
2018-Apr-16 06:30N 59°18' E 005°59'0 0.0
2018-Apr-16 06:00N 59°18' E 005°59'0 0.1
2018-Apr-16 05:30N 59°18' E 005°59'0 0.1
2018-Apr-16 05:00N 59°18' E 005°59'0 0.2
2018-Apr-16 04:30N 59°18' E 005°59'0 0.0
2018-Apr-16 03:57N 59°19' E 005°59'0 0.1
2018-Apr-16 03:30N 59°18' E 005°59'0 0.1
2018-Apr-16 03:00N 59°19' E 005°59'0 0.2
2018-Apr-16 02:30N 59°18' E 005°59'0 0.2
2018-Apr-16 02:00N 59°18' E 005°59'0 0.1
2018-Apr-16 01:30N 59°18' E 005°59'0 0.0
2018-Apr-16 01:00N 59°18' E 005°59'0 0.0
2018-Apr-16 00:30N 59°18' E 005°59'0 0.1
2018-Apr-16 00:00N 59°18' E 005°59'0 0.0
2018-Apr-15 23:30N 59°18' E 005°59'0 0.1
2018-Apr-15 22:57N 59°18' E 005°59'0 0.1
2018-Apr-15 22:30N 59°18' E 005°59'0 0.1
2018-Apr-15 22:00N 59°18' E 005°59'0 0.1
2018-Apr-15 21:30N 59°18' E 005°59'0 0.1
2018-Apr-15 21:00N 59°18' E 005°59'0 0.2
2018-Apr-15 20:30N 59°18' E 005°59'0 0.0
2018-Apr-15 20:00N 59°18' E 005°59'0 0.1
2018-Apr-15 19:30N 59°18' E 005°59'0 0.0
2018-Apr-15 19:00N 59°18' E 005°59'0 0.1
2018-Apr-15 18:30N 59°18' E 005°59'0 0.3
2018-Apr-15 18:00N 59°18' E 005°59'0 0.3
2018-Apr-15 17:30N 59°18' E 005°59'0 0.3
2018-Apr-15 17:00N 59°18' E 005°59'0 0.2
2018-Apr-15 16:30N 59°18' E 005°58'0 0.0
2018-Apr-15 16:00N 59°18' E 005°58'0 0.1
2018-Apr-15 15:30N 59°18' E 005°59'0 0.1
2018-Apr-15 15:00N 59°18' E 005°59'0 0.0
2018-Apr-15 14:30N 59°18' E 005°59'0 0.0
2018-Apr-15 13:57N 59°18' E 005°59'0 0.1
2018-Apr-15 13:30N 59°18' E 005°59'0 0.0
2018-Apr-15 13:00N 59°18' E 005°59'0 0.1
2018-Apr-15 12:30N 59°18' E 005°59'0 0.0
2018-Apr-15 12:00N 59°18' E 005°59'0 0.1
2018-Apr-15 11:24N 59°18' E 005°59'0 0.1
2018-Apr-15 11:00N 59°18' E 005°59'0 0.2
2018-Apr-15 10:30N 59°18' E 005°59'3 5.6
2018-Apr-15 10:00N 59°16' E 005°55'713.6
2018-Apr-15 09:30N 59°10' E 005°53'713.7
2018-Apr-15 09:00N 59°03' E 005°51'5 9.8
2018-Apr-15 08:30N 59°01' E 005°42'3 5.8
2018-Apr-15 08:00N 58°58' E 005°44'0 0.3
2018-Apr-15 07:28N 58°58' E 005°44'0 0.0
2018-Apr-15 06:58N 58°58' E 005°44'0 0.0
2018-Apr-15 06:25N 58°58' E 005°44'0 0.0
2018-Apr-15 05:58N 58°58' E 005°44'0 0.0
2018-Apr-15 05:28N 58°58' E 005°44'0 0.0
2018-Apr-15 04:58N 58°58' E 005°44'0 0.0
2018-Apr-15 04:28N 58°58' E 005°44'0 0.0
2018-Apr-15 03:58N 58°58' E 005°44'0 0.0
2018-Apr-15 03:28N 58°58' E 005°44'0 0.0
2018-Apr-15 02:58N 58°58' E 005°44'0 0.0
2018-Apr-15 02:28N 58°58' E 005°44'0 0.0
2018-Apr-15 01:58N 58°58' E 005°44'0 0.0
2018-Apr-15 01:28N 58°58' E 005°44'0 0.0
2018-Apr-15 00:58N 58°58' E 005°44'0 0.0
2018-Apr-15 00:28N 58°58' E 005°44'0 0.0
2018-Apr-14 23:58N 58°58' E 005°44'0 0.0
2018-Apr-14 23:28N 58°58' E 005°44'0 0.0
2018-Apr-14 22:58N 58°58' E 005°44'0 0.0
2018-Apr-14 22:28N 58°58' E 005°44'0 0.0
2018-Apr-14 21:58N 58°58' E 005°44'0 0.0
2018-Apr-14 21:28N 58°58' E 005°44'0 0.0
2018-Apr-14 20:58N 58°58' E 005°44'0 0.0
2018-Apr-14 20:25N 58°58' E 005°44'0 0.0
2018-Apr-14 19:58N 58°58' E 005°44'0 0.0
2018-Apr-14 19:28N 58°58' E 005°44'0 0.0
2018-Apr-14 18:58N 58°58' E 005°44'0 0.0
2018-Apr-14 18:28N 58°58' E 005°44'0 0.0
2018-Apr-14 17:58N 58°58' E 005°44'0 0.0
2018-Apr-14 17:25N 58°58' E 005°44'0 0.0
2018-Apr-14 16:58N 58°58' E 005°44'0 0.0
2018-Apr-14 16:28N 58°58' E 005°44'0 0.0
2018-Apr-14 15:58N 58°58' E 005°44'0 0.0
2018-Apr-14 15:28N 58°58' E 005°44'0 0.0
2018-Apr-14 14:58N 58°58' E 005°44'0 0.0
2018-Apr-14 14:28N 58°58' E 005°44'0 0.0
2018-Apr-14 13:58N 58°58' E 005°44'0 0.0
2018-Apr-14 13:28N 58°58' E 005°44'0 0.0
2018-Apr-14 12:58N 58°58' E 005°44'2 4.1
2018-Apr-14 12:30N 58°60' E 005°42'4 8.2
2018-Apr-14 12:01N 59°02' E 005°49'612.0
2018-Apr-14 11:30N 59°08' E 005°52'713.5
2018-Apr-14 11:00N 59°14' E 005°55'5 9.3
2018-Apr-14 10:30N 59°18' E 005°59'0 0.3
2018-Apr-14 09:58N 59°18' E 005°59'0 0.1
2018-Apr-14 09:28N 59°18' E 005°59'0 0.0
2018-Apr-14 08:58N 59°18' E 005°59'0 0.0
2018-Apr-14 08:28N 59°18' E 005°59'0 0.0
2018-Apr-14 07:58N 59°18' E 005°59'0 0.0
2018-Apr-14 07:28N 59°18' E 005°59'0 0.1
2018-Apr-14 06:58N 59°18' E 005°59'0 0.0
2018-Apr-14 06:25N 59°18' E 005°59'0 0.2
2018-Apr-14 05:58N 59°18' E 005°59'0 0.1
2018-Apr-14 05:28N 59°18' E 005°59'0 0.2
2018-Apr-14 04:58N 59°18' E 005°59'0 0.0
2018-Apr-14 04:28N 59°18' E 005°59'0 0.1
2018-Apr-14 03:55N 59°18' E 005°59'0 0.1
2018-Apr-14 03:28N 59°18' E 005°59'0 0.1
2018-Apr-14 02:58N 59°18' E 005°59'0 0.0
2018-Apr-14 02:28N 59°18' E 005°59'0 0.1
2018-Apr-14 01:58N 59°18' E 005°59'0 0.1
2018-Apr-14 01:28N 59°18' E 005°59'0 0.1
2018-Apr-14 00:58N 59°18' E 005°59'0 0.3
2018-Apr-14 00:28N 59°18' E 005°59'0 0.3
2018-Apr-13 23:58N 59°18' E 005°59'0 0.3
2018-Apr-13 23:28N 59°18' E 005°59'0 0.4
2018-Apr-13 22:58N 59°19' E 005°59'0 0.1
2018-Apr-13 22:28N 59°18' E 005°59'0 0.3
2018-Apr-13 21:58N 59°18' E 005°59'0 0.1
2018-Apr-13 21:25N 59°18' E 005°59'0 0.1
2018-Apr-13 20:58N 59°18' E 005°59'0 0.1
2018-Apr-13 20:28N 59°18' E 005°59'0 0.1
2018-Apr-13 19:55N 59°18' E 005°59'0 0.3
2018-Apr-13 19:22N 59°18' E 005°59'0 0.2
2018-Apr-13 18:58N 59°18' E 005°59'0 0.1
2018-Apr-13 18:28N 59°18' E 005°59'0 0.1
2018-Apr-13 17:58N 59°18' E 005°59'0 0.1
2018-Apr-13 17:28N 59°18' E 005°58'0 0.0
2018-Apr-13 16:58N 59°18' E 005°58'0 0.1
2018-Apr-13 16:28N 59°18' E 005°58'0 0.3
2018-Apr-13 15:58N 59°18' E 005°58'0 0.2
2018-Apr-13 15:28N 59°18' E 005°58'0 0.1
2018-Apr-13 14:58N 59°18' E 005°58'0 0.0
2018-Apr-13 14:28N 59°18' E 005°58'0 0.1
2018-Apr-13 13:58N 59°18' E 005°58'0 0.1
2018-Apr-13 13:28N 59°18' E 005°58'0 0.3
2018-Apr-13 12:58N 59°18' E 005°59'0 0.2
2018-Apr-13 12:28N 59°18' E 005°58'0 0.3
2018-Apr-13 11:58N 59°18' E 005°59'0 0.2
2018-Apr-13 11:28N 59°18' E 005°58'0 0.1
2018-Apr-13 10:58N 59°18' E 005°58'0 0.2
2018-Apr-13 10:28N 59°18' E 005°58'0 0.1
2018-Apr-13 09:58N 59°18' E 005°58'0 0.0
2018-Apr-13 09:28N 59°18' E 005°58'2 2.2
2018-Apr-13 08:30N 59°17' E 005°55'713.8
2018-Apr-13 07:59N 59°10' E 005°54'713.6
2018-Apr-13 07:30N 59°03' E 005°52'510.1
2018-Apr-13 07:00N 59°01' E 005°42'3 5.7
2018-Apr-13 06:30N 58°59' E 005°44'0 0.5
2018-Apr-13 06:00N 58°58' E 005°44'0 0.0
2018-Apr-13 05:30N 58°58' E 005°44'0 0.0
2018-Apr-13 05:01N 58°58' E 005°44'0 0.0
2018-Apr-13 04:31N 58°58' E 005°44'0 0.0
2018-Apr-13 04:01N 58°58' E 005°44'0 0.0
2018-Apr-13 03:30N 58°58' E 005°44'0 0.0
2018-Apr-13 03:00N 58°58' E 005°44'0 0.0
2018-Apr-13 02:30N 58°58' E 005°44'0 0.0
2018-Apr-13 02:01N 58°58' E 005°44'0 0.0
2018-Apr-13 01:31N 58°58' E 005°44'0 0.0
2018-Apr-13 01:01N 58°58' E 005°44'0 0.0
2018-Apr-13 00:31N 58°58' E 005°44'0 0.0
2018-Apr-13 00:01N 58°58' E 005°44'0 0.0
2018-Apr-12 23:31N 58°58' E 005°44'0 0.0
2018-Apr-12 23:01N 58°58' E 005°44'0 0.0
2018-Apr-12 22:31N 58°58' E 005°44'0 0.0
2018-Apr-12 22:00N 58°58' E 005°44'0 0.0
2018-Apr-12 21:30N 58°58' E 005°44'0 0.0
2018-Apr-12 21:00N 58°58' E 005°44'0 0.0
2018-Apr-12 20:30N 58°58' E 005°44'0 0.0
2018-Apr-12 20:00N 58°58' E 005°44'0 0.0
2018-Apr-12 19:30N 58°58' E 005°44'0 0.0
2018-Apr-12 19:00N 58°58' E 005°44'0 0.0
2018-Apr-12 18:30N 58°58' E 005°44'0 0.0
2018-Apr-12 18:00N 58°58' E 005°44'0 0.0
2018-Apr-12 17:30N 58°58' E 005°44'0 0.0
2018-Apr-12 17:00N 58°58' E 005°44'0 0.0
2018-Apr-12 16:31N 58°58' E 005°44'0 0.0
2018-Apr-12 16:00N 58°58' E 005°44'0 0.0
2018-Apr-12 15:31N 58°58' E 005°44'0 0.0
2018-Apr-12 15:00N 58°58' E 005°44'1 1.1
2018-Apr-12 14:30N 58°59' E 005°43'2 5.0
2018-Apr-12 14:00N 59°01' E 005°42'4 8.0
2018-Apr-12 13:30N 59°02' E 005°50'4 7.9
2018-Apr-12 13:00N 59°06' E 005°52'5 8.8
2018-Apr-12 12:29N 59°10' E 005°54'4 7.9
2018-Apr-12 12:00N 59°14' E 005°55'4 8.1
2018-Apr-12 11:30N 59°18' E 005°57'1 1.3
2018-Apr-12 10:58N 59°18' E 005°58'0 0.1
2018-Apr-12 10:28N 59°18' E 005°58'0 0.2
2018-Apr-12 09:58N 59°18' E 005°58'0 0.0
2018-Apr-12 09:28N 59°18' E 005°58'0 0.3
2018-Apr-12 08:58N 59°18' E 005°58'0 0.2
2018-Apr-12 08:28N 59°18' E 005°58'0 0.2
2018-Apr-12 07:58N 59°18' E 005°58'0 0.3
2018-Apr-12 07:28N 59°18' E 005°58'0 0.2
2018-Apr-12 06:58N 59°18' E 005°58'0 0.3
2018-Apr-12 06:28N 59°18' E 005°58'0 0.2
2018-Apr-12 05:55N 59°18' E 005°58'0 0.1
2018-Apr-12 05:28N 59°18' E 005°58'0 0.0
2018-Apr-12 04:58N 59°18' E 005°58'0 0.2
2018-Apr-12 04:28N 59°18' E 005°58'0 0.2
2018-Apr-12 03:55N 59°18' E 005°58'0 0.1
2018-Apr-12 03:25N 59°18' E 005°58'0 0.1
2018-Apr-12 02:58N 59°18' E 005°58'0 0.1
2018-Apr-12 02:25N 59°18' E 005°58'0 0.1
2018-Apr-12 01:58N 59°18' E 005°58'0 0.1
2018-Apr-12 01:28N 59°18' E 005°58'0 0.0
2018-Apr-12 00:58N 59°18' E 005°58'0 0.1
2018-Apr-12 00:28N 59°18' E 005°58'0 0.0
2018-Apr-11 23:58N 59°18' E 005°58'0 0.0
2018-Apr-11 23:28N 59°18' E 005°58'0 0.1
2018-Apr-11 22:58N 59°18' E 005°58'0 0.1
2018-Apr-11 22:28N 59°18' E 005°58'0 0.1
2018-Apr-11 21:58N 59°18' E 005°58'0 0.1
2018-Apr-11 21:28N 59°18' E 005°58'0 0.1
2018-Apr-11 20:58N 59°18' E 005°58'0 0.0
2018-Apr-11 20:28N 59°18' E 005°58'0 0.2
2018-Apr-11 19:58N 59°18' E 005°58'0 0.0
2018-Apr-11 19:28N 59°18' E 005°58'0 0.1
2018-Apr-11 18:58N 59°18' E 005°58'0 0.2
2018-Apr-11 18:28N 59°18' E 005°58'0 0.2
2018-Apr-11 17:58N 59°18' E 005°58'0 0.0
2018-Apr-11 17:28N 59°18' E 005°58'0 0.2
2018-Apr-11 16:55N 59°18' E 005°58'0 0.0
2018-Apr-11 16:28N 59°18' E 005°58'0 0.2
2018-Apr-11 15:58N 59°18' E 005°58'0 0.1
2018-Apr-11 15:28N 59°18' E 005°58'0 0.2
2018-Apr-11 14:55N 59°18' E 005°59'0 0.2
2018-Apr-11 14:28N 59°18' E 005°59'0 0.1
2018-Apr-11 13:58N 59°18' E 005°59'0 0.1
2018-Apr-11 13:28N 59°18' E 005°59'0 0.0
2018-Apr-11 12:58N 59°18' E 005°59'0 0.0
2018-Apr-11 12:28N 59°18' E 005°59'0 0.0
2018-Apr-11 11:58N 59°18' E 005°59'0 0.0
2018-Apr-11 11:28N 59°18' E 005°59'0 0.1
2018-Apr-11 10:58N 59°18' E 005°59'0 0.1
2018-Apr-11 10:28N 59°18' E 005°59'0 0.1
2018-Apr-11 09:58N 59°18' E 005°59'0 0.1
2018-Apr-11 09:28N 59°18' E 005°58'0 0.1
2018-Apr-11 08:58N 59°18' E 005°58'0 0.1
2018-Apr-11 08:28N 59°18' E 005°58'0 0.1
2018-Apr-11 07:58N 59°18' E 005°59'0 0.1
2018-Apr-11 07:28N 59°18' E 005°58'0 0.2
2018-Apr-11 06:58N 59°18' E 005°58'0 0.1
2018-Apr-11 06:28N 59°18' E 005°58'0 0.2
2018-Apr-11 05:58N 59°18' E 005°59'0 0.2
2018-Apr-11 05:29N 59°18' E 005°59'1 3.1
2018-Apr-11 05:00N 59°18' E 005°56'612.5
2018-Apr-11 04:29N 59°16' E 005°44'613.2
2018-Apr-11 04:00N 59°11' E 005°36'713.2
2018-Apr-11 03:29N 59°06' E 005°26'612.4
2018-Apr-11 03:00N 59°01' E 005°20'713.7
2018-Apr-11 02:30N 58°55' E 005°18'713.7
2018-Apr-11 02:01N 58°48' E 005°16'713.9
2018-Apr-11 01:30N 58°41' E 005°14'613.1
2018-Apr-11 01:00N 58°34' E 005°12'3 6.4
2018-Apr-11 00:30N 58°31' E 005°14'4 7.8
2018-Apr-11 00:01N 58°28' E 005°17'4 8.4
2018-Apr-10 23:28N 58°24' E 005°19'5 9.7
2018-Apr-10 23:00N 58°20' E 005°26'5 9.8
2018-Apr-10 22:30N 58°17' E 005°33'510.2
2018-Apr-10 21:58N 58°14' E 005°40'510.1
2018-Apr-10 21:31N 58°11' E 005°47'510.3
2018-Apr-10 21:00N 58°07' E 005°55'610.9
2018-Apr-10 20:30N 58°04' E 006°03'611.8
2018-Apr-10 20:00N 57°60' E 006°11'611.4
2018-Apr-10 19:30N 57°56' E 006°19'611.3
2018-Apr-10 19:00N 57°52' E 006°27'511.1
2018-Apr-10 18:30N 57°49' E 006°35'612.1
2018-Apr-10 17:58N 57°47' E 006°47'612.0
2018-Apr-10 17:31N 57°46' E 006°57'611.8
2018-Apr-10 17:00N 57°46' E 007°08'612.0
2018-Apr-10 16:30N 57°45' E 007°20'611.6
2018-Apr-10 16:00N 57°45' E 007°30'612.0
2018-Apr-10 15:30N 57°45' E 007°42'611.5
2018-Apr-10 15:00N 57°45' E 007°53'611.5
2018-Apr-10 14:29N 57°45' E 008°04'  

Dump ship's entire track history